EPGDEPKK

Guest
Details From EPGD - LECH WALESA
To EPKK - BALICE
Flight Number -
Tags decoded
Created
Modified
Stats Distance 267 nm / 495 km
Max Altitude 0 ft / 0 m
Waypoints 3
Social Downloads 2
Likes 0
Share VATSIM

Download

Looking for another format? Having issues loading an existing format? Contact us
Advertisement - Login to hide

Notes

Requested: EPGD IRLUN N133 NEGUV M66 KUKAM EPKK Unmatched points: IRLUN N133 NEGUV

Route

EPGD KUKAM EPKK

ID Type Via Altitude Latitude Longitude Leg Dist Tot Dist Heading (true) Name
O EPGD APT - 0 ft / 0 m 54.37617˚ 18.47188˚ - 0 nm - LECH WALESA
KUKAM FIX - 0 ft / 0 m 50.80611˚ 20.06056˚ 222 nm 222 nm 164° / 166° -
O EPKK APT - 0 ft / 0 m 50.07782˚ 19.78550˚ 44 nm 267 nm 194° / 193° BALICE

Altitude Profile

Advertisement - Login to hide

Weather


0- 5 10 15 20 25 30 35+ Temperature / ° C

Clouds and Precipitation
Forecast for 2017-12-12 12:00 UTC. Updated 2 hours ago

Ground ~20,000 ft ~40,000 ft Winds

EPGD

Details ICAO EPGD (GDN)
Name LECH WALESA
Region Poland
Timezone Europe/Warsaw (UTC+1.0)
Stats Elevation 489 ft / 149 m (AMSL)
Location 54.376167° 18.471884°
Runways 1
Magnetic Variation 5.450° E

METAR

EPGD 121030Z 23018KT 200V260 9999 BKN018 07/04 Q0990 R11/290095

Decode

TAF

TAF TAF EPGD 120530Z 1206/1306 22010KT 9999 BKN030 TEMPO 1206/1208 -RA BKN005 BECMG 1208/1210 24015G25KT TEMPO 1210/1218 24020G35KT BKN014 TEMPO 1218/1306 4000 -RASN BKN009 BECMG 1221/1223 27010KT

Decode

Departure Runways

ID Width Length Bearing (true) Bearing (mag) Surface Threshold Offset Overrun Length
11 148 ft / 45 m 9,158 ft / 2,791 m 112.96° 107.51° Asphalt 0 ft / 0 m 0 ft / 0 m
29 148 ft / 45 m 9,158 ft / 2,791 m 293.00° 287.55° Asphalt 0 ft / 0 m 0 ft / 0 m

EPKK

Details ICAO EPKK (KRK)
Name BALICE
Region Poland
Timezone Europe/Warsaw (UTC+1.0)
Stats Elevation 791 ft / 241 m (AMSL)
Location 50.077821° 19.785503°
Runways 1
Magnetic Variation 5.201° E

METAR

EPKK 121030Z 24016KT 9999 SCT040 SCT053 10/05 Q1002

Decode

TAF

TAF AMD EPKK 120851Z 1208/1306 24005KT CAVOK TEMPO 1208/1211 24020G35KT TEMPO 1211/1306 BKN014

Decode

Destination Runways

ID Width Length Bearing (true) Bearing (mag) Surface Threshold Offset Overrun Length
07 197 ft / 60 m 8,343 ft / 2,543 m 77.75° 72.55° Concrete 0 ft / 0 m 0 ft / 0 m
25 197 ft / 60 m 8,343 ft / 2,543 m 257.77° 252.57° Concrete 784 ft / 239 m 0 ft / 0 m

Approach Navaids

Runway Type Ident Frequency Range Bearing (true) Bearing (mag) Slope Elevation
25 Localiser KRW 110.30 MHz 18 nm / 33 km 257.73° 252.53° - 791 ft / 241 m (AMSL)
25 Glidescope KRW 110.30 MHz 10 nm / 19 km 257.76° 252.56° 3.00° 791 ft / 241 m (AMSL)
25 DME KRW 110.30 MHz 18 nm / 33 km - - - 827 ft / 252 m (AMSL)

Popular Alternatives